Time;durP1;ratioP1;P1;durP2;ratioP2;P2;SDS_P1;SDS_P2;PMS_P1;PMS_P2;Temp;Humidity;BMP_temperature;BMP_pressure;BME280_temperature;BME280_humidity;BME280_pressure;Samples;Min_cycle;Max_cycle;Signal;HPM_P1;HPM_P2
2022/04/15 00:02:18;;;;;;;7.10;5.47;;;;;;;15.84;65.12;100955.75;5111091;28;20403;-79
2022/04/15 00:04:44;;;;;;;8.37;5.43;;;;;;;15.78;64.33;100954.06;5112108;28;20720;-80
2022/04/15 00:07:10;;;;;;;7.67;5.87;;;;;;;15.73;64.58;100952.16;5111817;28;20384;-79
2022/04/15 00:09:36;;;;;;;7.68;5.10;;;;;;;15.67;64.73;100949.66;5110388;28;20412;-79
2022/04/15 00:12:06;;;;;;;7.30;5.57;;;;;;;15.63;64.59;100956.72;5113374;28;22312;-81
2022/04/15 00:14:32;;;;;;;10.57;5.90;;;;;;;15.56;64.46;100959.72;5112769;28;20779;-80
2022/04/15 00:16:58;;;;;;;12.35;6.75;;;;;;;15.52;64.18;100961.31;5114655;28;20400;-80
2022/04/15 00:19:23;;;;;;;6.97;5.33;;;;;;;15.47;64.57;100961.28;5115905;28;20441;-81
2022/04/15 00:21:49;;;;;;;5.70;4.65;;;;;;;15.42;64.49;100961.22;5105452;28;20936;-80
2022/04/15 00:24:14;;;;;;;7.17;5.13;;;;;;;15.36;64.84;100954.91;5112964;28;20408;-80
2022/04/15 00:26:39;;;;;;;6.23;4.60;;;;;;;15.32;64.92;100959.25;5095897;28;20787;-80
2022/04/15 00:29:06;;;;;;;6.27;5.00;;;;;;;15.32;65.00;100966.63;5115470;28;20423;-80
2022/04/15 00:31:32;;;;;;;8.68;5.10;;;;;;;15.26;65.13;100963.06;5115601;28;20755;-80
2022/04/15 00:33:57;;;;;;;9.77;4.30;;;;;;;15.19;64.80;100959.72;5106305;28;20455;-80
2022/04/15 00:36:22;;;;;;;4.20;3.90;;;;;;;15.12;64.58;100958.31;5108543;28;20402;-80
2022/04/15 00:38:48;;;;;;;4.40;4.00;;;;;;;15.04;64.36;100963.19;5114279;28;20435;-80
2022/04/15 00:41:16;;;;;;;8.10;4.57;;;;;;;14.97;65.09;100965.31;5096968;28;20397;-80
2022/04/15 00:43:41;;;;;;;4.97;4.43;;;;;;;14.93;65.33;100955.16;5115312;28;20385;-80
2022/04/15 00:46:08;;;;;;;6.85;4.80;;;;;;;14.90;65.46;100961.97;5115481;28;20785;-80
2022/04/15 00:48:35;;;;;;;7.30;4.97;;;;;;;14.90;65.46;100958.44;5111010;28;20439;-80
2022/04/15 00:51:01;;;;;;;9.48;5.95;;;;;;;14.85;65.63;100948.28;5110905;28;20489;-80
2022/04/15 00:53:29;;;;;;;8.07;5.78;;;;;;;14.83;65.92;100944.16;5109024;27;20377;-80
2022/04/15 00:56:05;;;;;;;9.40;6.85;;;;;;;14.81;66.19;100947.19;5108921;28;20387;-80
2022/04/15 00:58:33;;;;;;;8.45;6.50;;;;;;;14.83;66.56;100949.63;5099855;28;20760;-80
2022/04/15 01:01:00;;;;;;;10.32;6.88;;;;;;;14.79;66.24;100946.59;5114944;28;20463;-80
2022/04/15 01:03:25;;;;;;;7.15;6.43;;;;;;;14.77;66.67;100947.94;5106396;28;20440;-81
2022/04/15 01:05:59;;;;;;;7.43;5.83;;;;;;;14.76;66.30;100949.03;5111634;28;20406;-80
2022/04/15 01:08:28;;;;;;;10.53;6.50;;;;;;;14.77;66.47;100947.94;5114843;28;20400;-80
2022/04/15 01:11:00;;;;;;;8.05;6.53;;;;;;;14.76;66.28;100941.66;5115163;28;20741;-81
2022/04/15 01:13:31;;;;;;;11.90;7.20;;;;;;;14.76;66.28;100951.75;5114575;28;20384;-81
2022/04/15 01:15:56;;;;;;;9.00;7.00;;;;;;;14.73;66.71;100955.00;5110528;28;20474;-80
2022/04/15 01:18:25;;;;;;;8.40;7.20;;;;;;;14.73;66.62;100958.56;5112227;28;20878;-81
2022/04/15 01:20:53;;;;;;;7.43;6.53;;;;;;;14.70;66.46;100955.53;5114512;28;21009;-81
2022/04/15 01:23:20;;;;;;;7.63;6.32;;;;;;;14.68;66.79;100966.72;5111358;28;20453;-81
2022/04/15 01:25:45;;;;;;;8.55;6.00;;;;;;;14.68;65.76;100968.63;5096922;28;20395;-80
2022/04/15 01:28:16;;;;;;;8.73;6.00;;;;;;;14.67;65.40;100970.50;5114532;28;20403;-81
2022/04/15 01:30:43;;;;;;;10.63;6.07;;;;;;;14.60;65.39;100969.91;5114615;28;20388;-81
2022/04/15 01:33:11;;;;;;;11.50;6.45;;;;;;;14.53;65.73;100966.56;5114313;28;20395;-81
2022/04/15 01:35:37;;;;;;;8.25;6.47;;;;;;;14.50;65.93;100972.53;5112767;28;20936;-81
2022/04/15 01:38:06;;;;;;;8.57;6.40;;;;;;;14.49;66.17;100976.31;5107249;28;20422;-81
2022/04/15 01:40:31;;;;;;;8.43;6.30;;;;;;;14.45;66.27;100980.69;5103693;28;20395;-81
2022/04/15 01:42:56;;;;;;;11.07;6.13;;;;;;;14.40;66.16;100981.44;5109829;28;20406;-81
2022/04/15 01:45:22;;;;;;;9.15;6.10;;;;;;;14.37;66.17;100981.13;5111362;28;20396;-81
2022/04/15 01:47:47;;;;;;;9.97;6.40;;;;;;;14.33;66.00;100978.09;5111341;28;20412;-81
2022/04/15 01:50:12;;;;;;;9.13;6.47;;;;;;;14.28;66.21;100983.47;5107422;28;20739;-81
2022/04/15 01:52:38;;;;;;;8.38;6.60;;;;;;;14.26;66.34;100977.44;5114029;28;20392;-81
2022/04/15 01:55:04;;;;;;;11.65;6.28;;;;;;;14.25;66.11;100985.88;5112156;28;20396;-80
2022/04/15 01:57:29;;;;;;;8.83;6.87;;;;;;;14.22;66.29;100978.22;5110898;28;20982;-81
2022/04/15 01:59:55;;;;;;;8.40;6.17;;;;;;;14.19;66.11;100979.56;5112685;28;20453;-81
2022/04/15 02:02:20;;;;;;;9.20;6.53;;;;;;;14.17;66.09;100986.31;5112867;28;20396;-81
2022/04/15 02:04:45;;;;;;;6.97;5.75;;;;;;;14.13;66.06;100982.50;5111095;28;20471;-81
2022/04/15 02:07:11;;;;;;;8.50;4.80;;;;;;;14.08;65.85;100985.97;5113298;28;20422;-81
2022/04/15 02:09:36;;;;;;;6.77;6.10;;;;;;;14.04;65.90;100984.81;5112338;28;20974;-80
2022/04/15 02:12:01;;;;;;;9.87;6.33;;;;;;;14.03;65.72;100975.81;5113751;28;20391;-81
2022/04/15 02:14:27;;;;;;;10.10;6.47;;;;;;;14.01;65.50;100982.59;5112561;28;20748;-81
2022/04/15 02:16:53;;;;;;;9.32;6.60;;;;;;;13.97;65.94;100986.91;5113268;28;20445;-81
2022/04/15 02:19:20;;;;;;;8.27;6.78;;;;;;;13.94;66.29;100985.53;5113530;28;20465;-81
2022/04/15 02:21:46;;;;;;;7.22;6.45;;;;;;;13.94;66.31;100981.97;5111475;28;20384;-81
2022/04/15 02:24:11;;;;;;;12.57;6.03;;;;;;;13.92;65.99;100982.25;5106224;28;20396;-81
2022/04/15 02:26:36;;;;;;;7.10;5.67;;;;;;;13.89;65.85;100985.47;5107343;28;20429;-81
2022/04/15 02:29:02;;;;;;;12.43;6.53;;;;;;;13.87;66.02;100989.50;5113156;28;20890;-81
2022/04/15 02:31:27;;;;;;;7.93;5.83;;;;;;;13.84;66.49;100995.47;5094845;28;20405;-81
2022/04/15 02:33:52;;;;;;;8.07;6.93;;;;;;;13.80;66.17;100997.03;5111818;28;20445;-81
2022/04/15 02:36:18;;;;;;;8.60;6.93;;;;;;;13.77;66.17;101000.28;5113486;28;20469;-81
2022/04/15 02:38:43;;;;;;;9.57;6.60;;;;;;;13.74;66.24;100992.63;5113046;28;20400;-81
2022/04/15 02:41:09;;;;;;;9.10;6.90;;;;;;;13.72;66.75;100990.16;5111999;28;20406;-81
2022/04/15 02:43:37;;;;;;;8.10;6.80;;;;;;;13.69;66.75;100995.28;5112943;28;20478;-81
2022/04/15 02:46:05;;;;;;;8.80;6.20;;;;;;;13.67;66.88;100998.25;5107700;28;20409;-81
2022/04/15 02:48:31;;;;;;;8.90;6.47;;;;;;;13.67;66.71;101000.97;5096578;28;20465;-81
2022/04/15 02:50:56;;;;;;;7.47;6.40;;;;;;;13.64;66.81;100997.94;5111700;28;20863;-81
2022/04/15 02:53:23;;;;;;;10.10;6.10;;;;;;;13.59;66.64;100998.69;5112866;28;20391;-81
2022/04/15 02:55:48;;;;;;;9.25;6.50;;;;;;;13.58;66.64;100999.75;5112691;28;20480;-81
2022/04/15 02:58:14;;;;;;;7.73;6.80;;;;;;;13.57;67.32;100995.38;5111490;28;20475;-81
2022/04/15 03:00:39;;;;;;;6.73;6.03;;;;;;;13.57;67.12;100994.59;5106929;28;20405;-81
2022/04/15 03:03:04;;;;;;;7.50;5.77;;;;;;;13.56;67.14;101001.09;5102483;28;20411;-81
2022/04/15 03:05:30;;;;;;;9.50;5.87;;;;;;;13.55;67.22;100994.00;5111340;28;20867;-81
2022/04/15 03:07:55;;;;;;;6.83;6.13;;;;;;;13.53;66.60;100986.88;5112191;28;20436;-81
2022/04/15 03:10:21;;;;;;;8.93;6.38;;;;;;;13.53;66.63;100988.81;5106011;28;20432;-81
2022/04/15 03:12:47;;;;;;;7.17;6.20;;;;;;;13.49;66.58;100991.22;5112652;28;20458;-81
2022/04/15 03:15:12;;;;;;;8.40;6.60;;;;;;;13.46;66.48;100994.44;5111282;28;20784;-81
2022/04/15 03:17:37;;;;;;;7.03;6.00;;;;;;;13.43;66.35;100991.41;5110375;28;20388;-81
2022/04/15 03:20:04;;;;;;;6.77;5.10;;;;;;;13.37;66.27;100995.91;5111228;28;20385;-81
2022/04/15 03:22:34;;;;;;;7.05;6.18;;;;;;;13.32;66.23;100997.75;5104167;28;20416;-80
2022/04/15 03:24:59;;;;;;;7.07;5.18;;;;;;;13.28;65.90;100996.59;5112155;28;20392;-81
2022/04/15 03:27:24;;;;;;;10.27;5.40;;;;;;;13.22;65.96;100994.88;5112299;28;20850;-81
2022/04/15 03:29:50;;;;;;;5.73;5.17;;;;;;;13.20;65.50;101000.59;5112212;28;20404;-81
2022/04/15 03:32:15;;;;;;;10.33;5.97;;;;;;;13.13;66.28;100999.94;5110953;28;20385;-81
2022/04/15 03:34:40;;;;;;;7.63;5.83;;;;;;;13.13;66.88;100999.09;5110719;28;20785;-81
2022/04/15 03:37:05;;;;;;;6.90;5.23;;;;;;;13.12;66.74;101002.88;5104587;28;20911;-81
2022/04/15 03:39:31;;;;;;;6.37;5.60;;;;;;;13.10;66.79;100995.00;5110064;28;20400;-81
2022/04/15 03:41:56;;;;;;;6.23;5.57;;;;;;;13.10;66.58;100999.59;5112193;28;20384;-81
2022/04/15 03:44:22;;;;;;;7.23;6.10;;;;;;;13.11;66.56;101004.78;5111674;28;20465;-81
2022/04/15 03:46:47;;;;;;;11.93;6.90;;;;;;;13.11;66.90;101006.66;5111450;28;20396;-81
2022/04/15 03:49:12;;;;;;;6.17;5.53;;;;;;;13.11;66.47;100995.78;5110793;28;20412;-81
2022/04/15 03:51:38;;;;;;;6.20;5.70;;;;;;;13.11;66.80;101002.06;5104244;28;20405;-81
2022/04/15 03:54:03;;;;;;;7.20;5.78;;;;;;;13.10;66.90;101008.59;5099890;28;20785;-80
2022/04/15 03:56:34;;;;;;;7.63;5.73;;;;;;;13.09;66.83;101001.50;5110369;28;20411;-81
2022/04/15 03:58:59;;;;;;;5.63;5.13;;;;;;;13.09;66.86;101006.09;5108237;28;20917;-81
2022/04/15 04:01:25;;;;;;;6.00;5.35;;;;;;;13.05;66.54;101002.19;5111861;28;20445;-81
2022/04/15 04:03:51;;;;;;;8.80;5.43;;;;;;;13.00;66.79;101008.41;5111707;28;20391;-81
2022/04/15 04:06:16;;;;;;;5.68;5.18;;;;;;;12.96;66.85;100999.91;5103420;28;20492;-81
2022/04/15 04:08:49;;;;;;;7.00;5.83;;;;;;;12.94;66.49;101012.09;5108019;28;21017;-81
2022/04/15 04:11:14;;;;;;;8.05;5.90;;;;;;;12.90;66.54;101008.22;5111894;28;20513;-81
2022/04/15 04:13:39;;;;;;;6.43;5.83;;;;;;;12.89;66.76;101006.56;5111828;28;20856;-81
2022/04/15 04:16:05;;;;;;;6.07;5.47;;;;;;;12.86;66.80;101015.22;5111340;28;20400;-81
2022/04/15 04:18:30;;;;;;;8.73;6.37;;;;;;;12.82;66.71;101020.31;5106809;28;20406;-81
2022/04/15 04:20:55;;;;;;;5.67;5.20;;;;;;;12.78;66.41;101018.34;5110194;28;20767;-81
2022/04/15 04:23:21;;;;;;;6.20;5.60;;;;;;;12.77;66.27;101020.25;5111653;28;20380;-80
2022/04/15 04:25:46;;;;;;;5.60;5.10;;;;;;;12.78;66.03;101026.50;5111488;28;20393;-81
2022/04/15 04:28:11;;;;;;;4.87;4.47;;;;;;;12.75;65.83;101024.28;5111370;28;20464;-81
2022/04/15 04:30:36;;;;;;;6.57;5.10;;;;;;;12.72;65.63;101028.31;5111597;28;20846;-81
2022/04/15 04:33:02;;;;;;;6.00;4.70;;;;;;;12.68;65.54;101029.84;5107843;28;20499;-81
2022/04/15 04:35:27;;;;;;;7.57;5.00;;;;;;;12.63;65.42;101029.78;5101716;28;20428;-81
2022/04/15 04:37:52;;;;;;;8.67;4.90;;;;;;;12.55;66.27;101030.16;5111321;28;20412;-80
2022/04/15 04:40:18;;;;;;;6.35;5.00;;;;;;;12.58;66.31;101034.31;5111617;28;20376;-81
2022/04/15 04:42:46;;;;;;;10.97;5.13;;;;;;;12.58;66.70;101034.31;5110289;28;20396;-81
2022/04/15 04:45:12;;;;;;;4.93;4.45;;;;;;;12.60;66.82;101035.72;5111227;28;20423;-81
2022/04/15 04:47:38;;;;;;;5.78;4.80;;;;;;;12.63;66.74;101043.38;5108448;28;20428;-81
2022/04/15 04:50:06;;;;;;;6.97;4.72;;;;;;;12.65;66.53;101041.22;5107044;28;20400;-81
2022/04/15 04:52:31;;;;;;;7.75;5.47;;;;;;;12.67;66.40;101049.16;5110413;28;20701;-81
2022/04/15 04:54:57;;;;;;;5.57;5.07;;;;;;;12.67;66.72;101047.28;5110126;28;20405;-81
2022/04/15 04:57:22;;;;;;;5.53;4.83;;;;;;;12.66;66.72;101047.50;5112577;28;20391;-81
2022/04/15 04:59:47;;;;;;;8.50;5.30;;;;;;;12.66;66.18;101051.06;5113781;28;20668;-81
2022/04/15 05:02:12;;;;;;;6.33;5.07;;;;;;;12.67;66.26;101050.00;5112813;28;20400;-81
2022/04/15 05:04:40;;;;;;;6.50;4.50;;;;;;;12.69;66.25;101055.16;5100484;28;20410;-81
2022/04/15 05:07:05;;;;;;;4.40;4.03;;;;;;;12.68;65.55;101061.69;5115012;28;20384;-81
2022/04/15 05:09:31;;;;;;;4.57;3.80;;;;;;;12.63;65.51;101056.97;5114880;28;20427;-81
2022/04/15 05:11:56;;;;;;;6.23;4.27;;;;;;;12.62;65.54;101063.47;5110857;28;20854;-81
2022/04/15 05:14:22;;;;;;;5.53;4.47;;;;;;;12.61;65.20;101072.72;5114623;28;20380;-81
2022/04/15 05:16:47;;;;;;;4.43;4.13;;;;;;;12.61;65.58;101075.44;5114480;28;20387;-81
2022/04/15 05:19:13;;;;;;;5.00;4.50;;;;;;;12.63;65.97;101072.47;5113430;28;20918;-80
2022/04/15 05:21:38;;;;;;;5.90;3.90;;;;;;;12.64;65.56;101072.22;5114102;28;20395;-81
2022/04/15 05:24:05;;;;;;;5.67;4.50;;;;;;;12.64;65.46;101080.38;5113443;28;20389;-81
2022/04/15 05:26:33;;;;;;;4.77;4.10;;;;;;;12.66;65.69;101080.13;5114624;28;20406;-81
2022/04/15 05:28:59;;;;;;;5.07;4.23;;;;;;;12.67;66.11;101081.78;5109800;28;20472;-81
2022/04/15 05:31:24;;;;;;;4.53;3.60;;;;;;;12.68;65.75;101078.00;5111995;28;20385;-81
2022/04/15 05:33:50;;;;;;;6.97;4.00;;;;;;;12.68;66.02;101084.25;5114353;28;20435;-81
2022/04/15 05:36:16;;;;;;;5.60;4.10;;;;;;;12.72;65.91;101087.31;5112794;28;20401;-81
2022/04/15 05:38:41;;;;;;;6.43;3.95;;;;;;;12.74;65.89;101082.47;5114245;28;20408;-81
2022/04/15 05:41:07;;;;;;;5.13;4.17;;;;;;;12.74;66.01;101086.03;5112114;28;20484;-81
2022/04/15 05:43:32;;;;;;;4.57;3.63;;;;;;;12.78;65.98;101091.78;5114129;28;20396;-81
2022/04/15 05:45:57;;;;;;;7.23;4.43;;;;;;;12.82;66.44;101082.06;5109802;28;20392;-81
2022/04/15 05:48:22;;;;;;;4.27;3.97;;;;;;;12.85;66.71;101085.13;5105511;28;20395;-81
2022/04/15 05:50:48;;;;;;;5.03;3.93;;;;;;;12.90;66.56;101093.38;5113515;28;20532;-81
2022/04/15 05:53:13;;;;;;;4.90;4.37;;;;;;;12.92;67.09;101091.22;5114078;28;20719;-81
2022/04/15 05:55:39;;;;;;;4.32;3.92;;;;;;;12.96;67.06;101097.84;5112741;28;20388;-81
2022/04/15 05:58:04;;;;;;;4.17;3.87;;;;;;;13.00;66.92;101096.28;5108332;28;20499;-81
2022/04/15 06:00:29;;;;;;;4.63;4.00;;;;;;;13.06;66.47;101099.09;5108086;28;20397;-82
2022/04/15 06:02:55;;;;;;;4.10;3.80;;;;;;;13.13;66.86;101097.06;5112751;28;20403;-82
2022/04/15 06:05:22;;;;;;;6.05;4.22;;;;;;;13.22;67.56;101103.75;5113471;28;20422;-81
2022/04/15 06:07:47;;;;;;;6.68;5.97;;;;;;;13.30;67.26;101106.91;5112644;28;20389;-82
2022/04/15 06:10:13;;;;;;;8.00;5.53;;;;;;;13.38;67.55;101113.81;5112548;28;20944;-81
2022/04/15 06:15:31;;;;;;;7.78;5.47;;;;;;;13.47;67.22;101104.16;5102337;28;20410;-81
2022/04/15 06:17:57;;;;;;;7.60;6.45;;;;;;;13.53;67.34;101109.44;5110942;28;20763;-81
2022/04/15 06:20:24;;;;;;;8.43;7.00;;;;;;;13.61;67.01;101112.81;5113459;28;20728;-81
2022/04/15 06:22:49;;;;;;;8.77;7.97;;;;;;;13.67;67.09;101119.97;5111622;28;20392;-81
2022/04/15 06:25:15;;;;;;;15.00;8.40;;;;;;;13.73;67.50;101121.75;5113294;28;20376;-82
2022/04/15 06:27:41;;;;;;;11.90;8.05;;;;;;;13.72;68.19;101120.91;5105156;27;20811;-81
2022/04/15 06:30:07;;;;;;;9.83;8.50;;;;;;;13.77;68.14;101129.13;5113494;28;20388;-80
2022/04/15 06:32:36;;;;;;;11.38;9.55;;;;;;;13.85;68.15;101117.00;5106426;28;20465;-80
2022/04/15 06:35:03;;;;;;;12.82;9.60;;;;;;;13.91;68.67;101129.63;5113202;28;20385;-81
2022/04/15 06:37:28;;;;;;;10.38;8.95;;;;;;;13.94;68.36;101127.22;5112829;28;20440;-81
2022/04/15 06:39:53;;;;;;;13.17;9.10;;;;;;;14.02;68.70;101125.97;5112646;28;20435;-83
2022/04/15 06:42:36;;;;;;;13.73;10.63;;;;;;;14.17;68.15;101137.06;5107296;28;20401;-84
2022/04/15 06:45:01;;;;;;;12.00;9.90;;;;;;;14.27;67.80;101128.19;5100616;28;20408;-80
2022/04/15 06:47:27;;;;;;;11.65;9.77;;;;;;;14.33;67.77;101130.78;5112020;28;20384;-80
2022/04/15 06:49:54;;;;;;;12.33;9.23;;;;;;;14.47;67.49;101128.50;5095393;27;20458;-80
2022/04/15 06:52:21;;;;;;;12.10;10.15;;;;;;;14.51;67.51;101135.94;5111367;28;20396;-80
2022/04/15 06:54:47;;;;;;;14.43;11.53;;;;;;;14.53;67.09;101122.03;5109262;28;20392;-80
2022/04/15 06:57:15;;;;;;;12.27;11.07;;;;;;;14.64;67.23;101131.97;5105875;28;20405;-80
2022/04/15 06:59:40;;;;;;;16.33;12.30;;;;;;;14.74;66.80;101134.81;5092773;28;20947;-80
2022/04/15 07:02:06;;;;;;;16.48;12.50;;;;;;;14.80;66.75;101143.88;5108729;28;20412;-80
2022/04/15 07:04:32;;;;;;;18.80;14.87;;;;;;;14.79;66.11;101137.59;5101870;28;20434;-80
2022/04/15 07:06:58;;;;;;;17.73;15.37;;;;;;;14.84;66.21;101134.94;5106119;28;20771;-80
2022/04/15 07:09:23;;;;;;;15.40;13.80;;;;;;;14.92;65.81;101139.09;5101994;28;20422;-81
2022/04/15 07:11:48;;;;;;;21.37;16.47;;;;;;;14.97;65.71;101141.88;5103628;27;20411;-83
2022/04/15 07:14:14;;;;;;;18.63;16.20;;;;;;;15.06;65.23;101143.91;5094758;28;20412;-81
2022/04/15 07:16:39;;;;;;;21.67;16.77;;;;;;;15.16;64.92;101145.91;5111342;27;20812;-81
2022/04/15 07:19:05;;;;;;;18.83;16.43;;;;;;;15.25;64.55;101149.81;5111834;28;20396;-81
2022/04/15 07:21:37;;;;;;;18.87;16.40;;;;;;;15.37;64.30;101146.91;5112192;27;20746;-81
2022/04/15 07:24:04;;;;;;;22.70;17.65;;;;;;;15.49;64.25;101147.59;5112589;28;20424;-78
2022/04/15 07:26:29;;;;;;;20.63;18.40;;;;;;;15.49;63.94;101150.31;5111939;28;20461;-81
2022/04/15 07:28:55;;;;;;;20.70;18.50;;;;;;;15.52;64.00;101141.59;5107732;28;20412;-81
2022/04/15 07:31:20;;;;;;;24.30;18.70;;;;;;;15.58;64.08;101144.13;5108918;27;20495;-80
2022/04/15 07:33:48;;;;;;;23.13;20.63;;;;;;;15.63;63.35;101147.97;5112793;27;20388;-81
2022/04/15 07:38:58;;;;;;;24.87;20.60;;;;;;;15.62;62.62;101149.88;5111047;28;20399;-78
2022/04/15 07:41:25;;;;;;;26.67;21.77;;;;;;;15.58;62.27;101146.84;5108402;28;21552;-83
2022/04/15 07:43:50;;;;;;;24.53;20.37;;;;;;;15.57;62.32;101153.41;5108660;28;20449;-79
2022/04/15 07:46:16;;;;;;;22.80;20.37;;;;;;;15.61;62.24;101152.91;5109362;28;20407;-80
2022/04/15 07:48:42;;;;;;;26.60;21.00;;;;;;;15.67;62.26;101154.56;5111859;28;20731;-80
2022/04/15 07:51:08;;;;;;;22.87;20.40;;;;;;;15.73;61.73;101159.00;5112269;28;20457;-81
2022/04/15 07:53:33;;;;;;;22.25;19.75;;;;;;;15.77;61.65;101160.94;5112034;28;20419;-80
2022/04/15 07:55:58;;;;;;;24.73;20.87;;;;;;;15.85;61.74;101156.88;5104366;28;20755;-80
2022/04/15 07:58:24;;;;;;;21.83;19.67;;;;;;;15.88;61.40;101150.88;5104998;28;20445;-80
2022/04/15 08:00:49;;;;;;;24.37;20.87;;;;;;;16.02;61.22;101163.03;5112037;28;20440;-80
2022/04/15 08:03:17;;;;;;;22.70;20.13;;;;;;;16.16;60.94;101160.66;5109219;28;20720;-80
2022/04/15 08:05:42;;;;;;;22.88;20.48;;;;;;;16.19;60.85;101158.22;5112322;28;20766;-80
2022/04/15 08:08:07;;;;;;;23.50;20.58;;;;;;;16.24;60.93;101157.41;5112014;28;20494;-80
2022/04/15 08:10:33;;;;;;;25.60;20.00;;;;;;;16.23;60.29;101162.06;5111786;28;20529;-80
2022/04/15 08:12:58;;;;;;;23.10;19.47;;;;;;;16.28;60.24;101166.72;5110527;28;20400;-80
2022/04/15 08:15:26;;;;;;;23.10;19.93;;;;;;;16.42;59.80;101170.63;5111716;28;20399;-80
2022/04/15 08:17:52;;;;;;;22.35;20.08;;;;;;;16.60;59.00;101179.22;5111803;28;20434;-80
2022/04/15 08:20:17;;;;;;;21.10;19.00;;;;;;;16.57;59.29;101173.47;5111579;28;20377;-80
2022/04/15 08:22:42;;;;;;;23.48;19.65;;;;;;;16.69;59.12;101173.25;5111669;28;20391;-80
2022/04/15 08:25:08;;;;;;;21.20;19.10;;;;;;;16.81;58.93;101180.13;5111812;28;20681;-80
2022/04/15 08:27:33;;;;;;;21.23;19.13;;;;;;;16.72;59.01;101170.81;5111579;28;20383;-80
2022/04/15 08:29:58;;;;;;;20.87;18.80;;;;;;;16.70;59.41;101172.97;5111646;28;20442;-80
2022/04/15 08:32:24;;;;;;;20.83;18.73;;;;;;;16.82;59.62;101176.31;5086659;28;20415;-80
2022/04/15 08:34:49;;;;;;;22.90;18.80;;;;;;;16.91;58.68;101179.34;5115559;28;20431;-80
2022/04/15 08:37:15;;;;;;;20.10;18.00;;;;;;;17.04;58.67;101178.84;5112784;28;20408;-80
2022/04/15 08:39:40;;;;;;;21.77;17.90;;;;;;;17.15;58.36;101182.44;5115443;28;20388;-80
2022/04/15 08:42:07;;;;;;;21.47;18.03;;;;;;;17.29;58.25;101175.34;5115326;28;20905;-80
2022/04/15 08:44:33;;;;;;;21.45;18.17;;;;;;;17.36;58.45;101178.59;5115297;28;20915;-80
2022/04/15 08:47:00;;;;;;;20.00;17.67;;;;;;;17.54;58.19;101175.34;5115376;28;20393;-80
2022/04/15 08:49:25;;;;;;;19.17;17.20;;;;;;;17.65;57.12;101182.50;5114015;28;20937;-80
2022/04/15 08:51:51;;;;;;;19.53;17.53;;;;;;;17.78;57.18;101175.66;5114849;28;20428;-80
2022/04/15 08:54:17;;;;;;;20.53;17.00;;;;;;;17.99;56.52;101185.50;5115061;28;20380;-80
2022/04/15 08:56:43;;;;;;;20.95;17.75;;;;;;;18.21;55.92;101179.72;5115405;28;20429;-80
2022/04/15 08:59:11;;;;;;;19.85;17.63;;;;;;;18.37;55.46;101187.63;5115303;28;20373;-80
2022/04/15 09:01:37;;;;;;;17.63;15.75;;;;;;;18.53;54.07;101191.16;5113629;28;20471;-80
2022/04/15 09:04:03;;;;;;;18.70;16.73;;;;;;;18.83;53.94;101192.97;5115121;28;20415;-80
2022/04/15 09:06:31;;;;;;;18.57;15.93;;;;;;;19.09;53.36;101192.56;5115265;28;20467;-80
2022/04/15 09:09:04;;;;;;;18.27;15.82;;;;;;;19.28;52.78;101187.22;5114971;28;20510;-80
2022/04/15 09:11:34;;;;;;;18.92;16.85;;;;;;;19.30;52.00;101192.44;5114848;28;20380;-80
2022/04/15 09:14:03;;;;;;;18.38;16.45;;;;;;;19.36;51.63;101183.88;5098748;28;20483;-80
2022/04/15 09:16:30;;;;;;;18.15;16.25;;;;;;;19.55;51.74;101193.09;5114697;28;20433;-80
2022/04/15 09:18:58;;;;;;;17.93;15.57;;;;;;;19.84;51.55;101184.06;5113656;28;20412;-78
2022/04/15 09:21:25;;;;;;;18.27;15.57;;;;;;;20.04;50.27;101189.38;5114851;28;20393;-80
2022/04/15 09:23:52;;;;;;;18.80;16.02;;;;;;;20.16;49.80;101187.03;5113544;28;20408;-80
2022/04/15 09:26:19;;;;;;;17.48;15.68;;;;;;;20.23;49.51;101189.44;5114793;28;20449;-80
2022/04/15 09:28:45;;;;;;;18.73;15.90;;;;;;;20.36;49.36;101192.38;5112368;28;20404;-80
2022/04/15 09:31:13;;;;;;;17.35;15.55;;;;;;;20.57;48.77;101190.22;5109822;28;20394;-79
2022/04/15 09:33:49;;;;;;;22.70;16.67;;;;;;;20.86;48.31;101193.69;5109773;28;20460;-81
2022/04/15 09:36:22;;;;;;;16.93;15.23;;;;;;;21.02;47.43;101195.13;5113674;27;20885;-81
2022/04/15 09:38:49;;;;;;;18.15;16.27;;;;;;;21.19;47.83;101191.88;5114486;28;20404;-81
2022/04/15 09:41:19;;;;;;;17.17;15.35;;;;;;;21.20;47.47;101194.38;5113798;28;20400;-79
2022/04/15 09:43:51;;;;;;;18.27;15.55;;;;;;;21.47;46.57;101198.38;5113421;28;20392;-78
2022/04/15 09:46:16;;;;;;;17.45;15.13;;;;;;;21.77;45.51;101197.06;5114144;28;20887;-79
2022/04/15 09:49:02;;;;;;;19.10;16.67;;;;;;;21.82;44.58;101195.03;5114171;28;20435;-79
2022/04/15 09:51:43;;;;;;;18.90;16.90;;;;;;;21.80;44.24;101188.19;5106269;28;20389;-79
2022/04/15 09:54:23;;;;;;;18.95;17.10;;;;;;;21.85;44.45;101188.91;5114229;28;20867;-79
2022/04/15 09:56:49;;;;;;;18.38;16.58;;;;;;;21.83;44.21;101185.63;5114054;28;20384;-79
2022/04/15 09:59:16;;;;;;;18.60;16.80;;;;;;;21.77;44.63;101194.31;5113656;28;20863;-79
2022/04/15 10:01:45;;;;;;;20.03;16.50;;;;;;;21.79;43.76;101189.28;5110443;28;20909;-78
2022/04/15 10:04:12;;;;;;;23.48;17.65;;;;;;;21.86;43.75;101187.78;5112716;28;20475;-79
2022/04/15 10:06:39;;;;;;;19.13;15.57;;;;;;;22.28;43.44;101184.00;5109687;28;20380;-81
2022/04/15 10:09:06;;;;;;;18.92;16.80;;;;;;;22.63;41.99;101179.72;5112896;27;20467;-79
2022/04/15 10:11:34;;;;;;;19.80;16.98;;;;;;;22.93;41.67;101178.28;5114329;27;20470;-79
2022/04/15 10:14:01;;;;;;;17.73;16.03;;;;;;;22.93;41.11;101181.03;5109339;28;20412;-79
2022/04/15 10:16:27;;;;;;;17.35;15.52;;;;;;;22.89;40.99;101168.97;5112428;27;20474;-79
2022/04/15 10:18:52;;;;;;;16.48;14.02;;;;;;;22.96;40.27;101180.41;5112805;28;20794;-81
2022/04/15 10:21:18;;;;;;;17.23;15.43;;;;;;;23.17;40.06;101187.16;5112018;28;20393;-81
2022/04/15 10:23:44;;;;;;;17.33;15.07;;;;;;;23.15;39.80;101176.38;5111338;28;20408;-82
2022/04/15 10:26:10;;;;;;;16.73;15.13;;;;;;;23.12;40.18;101181.72;5094073;28;20458;-81
2022/04/15 10:28:47;;;;;;;17.70;15.77;;;;;;;23.50;39.03;101171.19;5113163;28;20766;-80
2022/04/15 10:31:16;;;;;;;17.60;14.85;;;;;;;23.96;39.13;101174.44;5113257;28;20438;-80
2022/04/15 10:33:43;;;;;;;15.60;13.52;;;;;;;24.12;37.12;101172.91;5112817;27;20384;-79
2022/04/15 10:36:22;;;;;;;14.95;12.82;;;;;;;24.59;36.59;101184.38;5108600;27;20783;-79
2022/04/15 10:39:03;;;;;;;15.85;14.15;;;;;;;24.98;35.60;101180.72;5124812;27;20911;-78
2022/04/15 10:41:50;;;;;;;16.35;14.63;;;;;;;25.12;35.26;101173.91;5111771;27;20429;-78
2022/04/15 10:44:45;;;;;;;14.82;13.43;;;;;;;25.45;35.34;101171.47;5112650;27;20859;-79
2022/04/15 10:47:19;;;;;;;15.52;13.93;;;;;;;25.68;35.08;101172.13;5103527;28;20450;-79
2022/04/15 10:50:06;;;;;;;15.03;13.27;;;;;;;25.82;35.02;101169.19;5097277;27;20420;-79
2022/04/15 10:52:34;;;;;;;14.60;13.18;;;;;;;25.40;34.76;101171.63;5105345;28;20515;-79
2022/04/15 10:55:06;;;;;;;15.23;13.65;;;;;;;24.55;35.67;101170.31;5109254;28;20886;-80
2022/04/15 10:57:36;;;;;;;15.05;13.52;;;;;;;23.60;36.88;101166.22;5107763;28;20902;-79
2022/04/15 11:02:55;;;;;;;15.00;13.43;;;;;;;24.25;36.83;101160.94;5107924;27;20413;-78
2022/04/15 11:05:42;;;;;;;15.52;13.93;;;;;;;24.22;36.16;101164.34;5094912;28;20398;-78
2022/04/15 11:08:13;;;;;;;14.25;12.82;;;;;;;24.10;37.17;101166.03;5099885;28;20404;-79
2022/04/15 11:11:02;;;;;;;14.68;13.18;;;;;;;23.97;37.73;101167.78;5106210;27;20398;-78
2022/04/15 11:13:56;;;;;;;15.05;13.45;;;;;;;24.43;37.38;101167.38;5111080;27;20741;-78
2022/04/15 11:16:22;;;;;;;15.23;13.57;;;;;;;24.96;36.28;101158.84;5109456;28;20430;-79
2022/04/15 11:18:55;;;;;;;13.77;12.30;;;;;;;25.40;35.56;101165.25;5105961;28;20420;-78
2022/04/15 11:21:37;;;;;;;15.18;13.55;;;;;;;25.73;34.06;101163.63;5111626;28;20453;-79
2022/04/15 11:24:11;;;;;;;15.65;13.65;;;;;;;25.73;33.80;101160.84;5096221;28;20410;-79
2022/04/15 11:26:38;;;;;;;14.38;12.95;;;;;;;25.86;34.21;101151.50;5101688;28;20392;-78